Sky Acres, Vermont
Current Conditions -  °F | °C
As of 11:02 AM on Sunday 21 Dec 2014 (Local Time) from KMPV Reporting Station
Light Snow Light Snow  
Wind Chill: 20°   Ceiling: 3200
Heat Index: 20°   Visibility: 3mi
Dew Point: 17°   Wind: 0mph
Humidity: 89%   Direction: NA
Pressure: 30.33"   Gusts: NA
Location:  44.0671°N, 72.4216°W
Report Text: KMPV 211602Z AUTO 00000KT 3SM -SN BR OVC032 M07/M08 A3033 RMK AO2 P0000 T10671083 $
Loading
Personal Weather Stations






























Interactive Weather Map New forecast layout! Learn more

10-Day Weather Forecast

Advertisements
Track Severe Weather on mobile